Time;durP1;ratioP1;P1;durP2;ratioP2;P2;SDS_P1;SDS_P2;PMS_P1;PMS_P2;Temp;Humidity;BMP_temperature;BMP_pressure;BME280_temperature;BME280_humidity;BME280_pressure;Samples;Min_cycle;Max_cycle;Signal;HPM_P1;HPM_P2
2022/06/09 00:01:52;;;;;;;;;;;;;;;16.00;70.71;96722.22;109931;1250;68763;-75
2022/06/09 00:04:26;;;;;;;;;;;;;;;15.97;70.62;96726.03;109816;1251;60509;-73
2022/06/09 00:06:59;;;;;;;;;;;;;;;15.96;70.99;96728.67;109773;1250;60537;-71
2022/06/09 00:09:34;;;;;;;;;;;;;;;15.93;69.74;96729.48;109776;1251;72314;-75
2022/06/09 00:12:05;;;;;;;;;;;;;;;15.90;69.84;96727.89;110240;1251;68417;-76
2022/06/09 00:14:36;;;;;;;;;;;;;;;15.87;70.55;96725.55;109864;1251;69396;-73
2022/06/09 00:17:06;;;;;;;;;;;;;;;15.84;71.63;96727.48;109891;1251;60445;-76
2022/06/09 00:19:37;;;;;;;;;;;;;;;15.80;71.69;96724.50;109953;1250;60553;-74
2022/06/09 00:22:06;;;;;;;;;;;;;;;15.77;71.13;96721.96;109928;1250;72246;-67
2022/06/09 00:24:37;;;;;;;;;;;;;;;15.75;70.88;96722.19;109930;1251;67669;-75
2022/06/09 00:27:07;;;;;;;;;;;;;;;15.73;70.77;96717.54;109771;1250;68766;-71
2022/06/09 00:29:37;;;;;;;;;;;;;;;15.71;70.32;96717.55;109554;1251;60595;-74
2022/06/09 00:32:08;;;;;;;;;;;;;;;15.67;70.03;96715.36;109616;1251;60560;-75
2022/06/09 00:34:37;;;;;;;;;;;;;;;15.64;69.71;96714.27;109873;1250;72187;-77
2022/06/09 00:37:07;;;;;;;;;;;;;;;15.61;70.36;96712.39;109918;1250;68530;-73
2022/06/09 00:39:37;;;;;;;;;;;;;;;15.59;70.17;96711.24;109764;1251;68560;-76
2022/06/09 00:42:08;;;;;;;;;;;;;;;15.57;69.84;96711.65;109622;1251;60508;-75
2022/06/09 00:44:39;;;;;;;;;;;;;;;15.53;69.25;96707.61;109957;1250;60495;-69
2022/06/09 00:47:24;;;;;;;;;;;;;;;15.49;69.23;96711.14;109883;1250;71562;-76
2022/06/09 00:50:04;;;;;;;;;;;;;;;15.46;69.01;96706.42;109873;1251;68553;-75
2022/06/09 00:52:36;;;;;;;;;;;;;;;15.44;69.37;96706.29;109970;1250;68631;-76
2022/06/09 00:55:10;;;;;;;;;;;;;;;15.42;69.66;96705.08;109846;1250;60501;-74
2022/06/09 00:57:45;;;;;;;;;;;;;;;15.41;68.95;96705.26;109960;1251;60475;-68
2022/06/09 01:00:19;;;;;;;;;;;;;;;15.37;69.98;96708.27;109981;1250;71707;-72
2022/06/09 01:02:52;;;;;;;;;;;;;;;15.33;72.06;96706.20;109977;1250;69081;-69
2022/06/09 01:05:23;;;;;;;;;;;;;;;15.28;69.16;96701.21;109962;1250;69334;-76
2022/06/09 01:07:55;;;;;;;;;;;;;;;15.22;69.07;96700.82;109897;1251;60564;-77
2022/06/09 01:10:28;;;;;;;;;;;;;;;15.14;69.14;96697.07;109807;1251;60518;-76
2022/06/09 01:12:59;;;;;;;;;;;;;;;15.03;69.73;96698.04;109924;1250;72181;-72
2022/06/09 01:15:51;;;;;;;;;;;;;;;14.94;70.02;96697.35;109553;1254;68470;-72
2022/06/09 01:18:24;;;;;;;;;;;;;;;14.86;70.13;96699.60;109808;1250;67643;-74
2022/06/09 01:21:02;;;;;;;;;;;;;;;14.78;71.28;96699.52;109932;1250;60508;-76
2022/06/09 01:23:49;;;;;;;;;;;;;;;14.72;70.36;96698.15;110142;1251;60465;-76
2022/06/09 01:26:34;;;;;;;;;;;;;;;14.67;70.55;96700.58;110178;1250;71612;-71
2022/06/09 01:29:05;;;;;;;;;;;;;;;14.63;70.98;96695.23;109922;1251;68424;-78
2022/06/09 01:31:42;;;;;;;;;;;;;;;14.59;71.30;96695.80;109784;1251;69264;-76
2022/06/09 01:34:23;;;;;;;;;;;;;;;14.56;70.99;96698.75;109812;1250;60634;-76
2022/06/09 01:37:00;;;;;;;;;;;;;;;14.54;73.25;96700.05;110005;1250;60486;-76
2022/06/09 01:39:42;;;;;;;;;;;;;;;14.52;74.83;96702.70;109896;1250;72327;-76
2022/06/09 01:42:23;;;;;;;;;;;;;;;14.51;73.72;96704.34;110007;1250;68583;-73
2022/06/09 01:45:19;;;;;;;;;;;;;;;14.50;71.76;96701.43;110002;1250;69571;-77
2022/06/09 01:47:50;;;;;;;;;;;;;;;14.51;71.36;96699.77;109951;1250;60654;-68
2022/06/09 01:50:28;;;;;;;;;;;;;;;14.53;71.95;96699.76;109909;1250;60470;-76
2022/06/09 01:53:01;;;;;;;;;;;;;;;14.51;74.50;96701.05;109664;1251;72235;-78
2022/06/09 01:55:34;;;;;;;;;;;;;;;14.45;73.65;96705.41;110001;1250;68578;-78
2022/06/09 01:58:05;;;;;;;;;;;;;;;14.35;73.30;96707.83;109932;1250;68858;-76
2022/06/09 02:00:36;;;;;;;;;;;;;;;14.26;74.91;96706.44;109929;1250;60480;-75
2022/06/09 02:03:14;;;;;;;;;;;;;;;14.20;75.68;96710.17;109886;1251;60462;-76
2022/06/09 02:05:48;;;;;;;;;;;;;;;14.17;76.64;96707.91;109873;1250;72274;-75
2022/06/09 02:08:18;;;;;;;;;;;;;;;14.13;76.80;96708.09;109911;1250;67797;-78
2022/06/09 02:10:53;;;;;;;;;;;;;;;14.10;77.36;96711.92;109953;1250;68693;-75
2022/06/09 02:13:27;;;;;;;;;;;;;;;14.08;77.08;96710.02;109792;1250;60511;-76
2022/06/09 02:16:05;;;;;;;;;;;;;;;14.05;76.98;96713.39;109927;1250;60500;-77
2022/06/09 02:18:38;;;;;;;;;;;;;;;14.03;76.98;96716.74;109994;1250;72349;-77
2022/06/09 02:21:13;;;;;;;;;;;;;;;14.00;76.96;96712.65;109938;1250;68638;-76
2022/06/09 02:23:43;;;;;;;;;;;;;;;13.99;76.17;96718.90;109755;1251;67935;-77
2022/06/09 02:26:12;;;;;;;;;;;;;;;13.96;76.29;96718.82;109881;1250;60480;-78
2022/06/09 02:28:43;;;;;;;;;;;;;;;13.95;76.24;96720.52;110194;1251;60490;-74
2022/06/09 02:31:13;;;;;;;;;;;;;;;13.95;76.75;96721.05;110272;1250;71485;-77
2022/06/09 02:33:43;;;;;;;;;;;;;;;13.96;76.64;96716.95;109899;1250;68546;-74
2022/06/09 02:36:12;;;;;;;;;;;;;;;13.96;76.51;96716.61;109958;1250;69471;-77
2022/06/09 02:38:41;;;;;;;;;;;;;;;13.95;73.92;96717.33;109750;1251;60525;-77
2022/06/09 02:41:11;;;;;;;;;;;;;;;13.94;74.21;96716.79;109931;1250;60511;-74
2022/06/09 02:43:42;;;;;;;;;;;;;;;13.92;73.93;96714.88;109689;1250;73148;-79
2022/06/09 02:46:12;;;;;;;;;;;;;;;13.90;74.03;96714.25;109857;1250;68433;-78
2022/06/09 02:48:41;;;;;;;;;;;;;;;13.87;74.74;96714.85;109811;1251;67702;-77
2022/06/09 02:51:31;;;;;;;;;;;;;;;13.84;75.89;96713.21;109894;1250;60502;-76
2022/06/09 02:54:01;;;;;;;;;;;;;;;13.80;75.31;96707.11;109945;1250;60549;-73
2022/06/09 02:56:31;;;;;;;;;;;;;;;13.78;75.71;96704.33;110020;1250;72392;-74
2022/06/09 02:59:01;;;;;;;;;;;;;;;13.76;76.43;96700.25;109948;1250;68610;-76
2022/06/09 03:01:31;;;;;;;;;;;;;;;13.77;75.82;96701.42;109916;1250;68305;-73
2022/06/09 03:04:02;;;;;;;;;;;;;;;13.78;75.04;96704.33;109902;1250;60444;-77
2022/06/09 03:06:33;;;;;;;;;;;;;;;13.76;74.30;96704.79;109988;1250;60569;-76
2022/06/09 03:09:04;;;;;;;;;;;;;;;13.73;76.18;96703.93;109698;1250;71428;-74
2022/06/09 03:11:34;;;;;;;;;;;;;;;13.68;76.88;96702.50;109719;1250;67822;-76
2022/06/09 03:14:04;;;;;;;;;;;;;;;13.65;76.73;96703.48;109787;1250;69441;-75
2022/06/09 03:16:34;;;;;;;;;;;;;;;13.61;77.44;96704.40;109773;1251;60535;-76
2022/06/09 03:19:05;;;;;;;;;;;;;;;13.58;77.63;96704.85;109983;1250;60538;-77
2022/06/09 03:21:34;;;;;;;;;;;;;;;13.59;77.03;96707.20;109910;1250;72333;-74
2022/06/09 03:24:05;;;;;;;;;;;;;;;13.59;77.34;96705.81;109741;1250;67878;-76
2022/06/09 03:26:34;;;;;;;;;;;;;;;13.59;77.08;96710.85;109797;1251;68473;-70
2022/06/09 03:29:04;;;;;;;;;;;;;;;13.62;78.34;96710.11;110202;1253;60497;-76
2022/06/09 03:31:33;;;;;;;;;;;;;;;13.67;78.38;96715.52;110103;1250;60498;-72
2022/06/09 03:34:02;;;;;;;;;;;;;;;13.73;77.82;96718.42;109879;1250;71542;-76
2022/06/09 03:36:31;;;;;;;;;;;;;;;13.80;78.20;96719.06;109972;1250;68032;-76
2022/06/09 03:39:01;;;;;;;;;;;;;;;13.86;78.52;96722.52;109902;1250;69460;-73
2022/06/09 03:41:30;;;;;;;;;;;;;;;13.91;78.60;96723.76;109992;1250;60573;-76
2022/06/09 03:44:04;;;;;;;;;;;;;;;13.97;78.28;96721.52;109796;1250;60938;-72
2022/06/09 03:46:35;;;;;;;;;;;;;;;14.07;77.84;96718.69;109930;1249;72262;-77
2022/06/09 03:49:04;;;;;;;;;;;;;;;14.17;78.33;96718.22;109771;1250;68463;-76
2022/06/09 03:51:35;;;;;;;;;;;;;;;14.25;77.57;96714.60;109911;1250;68526;-78
2022/06/09 03:54:05;;;;;;;;;;;;;;;14.34;77.08;96713.23;109862;1251;60546;-78
2022/06/09 03:56:35;;;;;;;;;;;;;;;14.43;76.96;96713.15;109926;1250;60522;-75
2022/06/09 03:59:05;;;;;;;;;;;;;;;14.53;76.50;96714.48;109900;1250;72308;-71
2022/06/09 04:01:34;;;;;;;;;;;;;;;14.63;75.29;96712.45;109877;1250;68654;-76
2022/06/09 04:04:03;;;;;;;;;;;;;;;14.70;73.82;96710.16;109935;1250;67594;-75
2022/06/09 04:06:34;;;;;;;;;;;;;;;14.77;73.44;96705.80;109672;1250;60496;-77
2022/06/09 04:09:04;;;;;;;;;;;;;;;14.84;73.31;96706.11;109851;1250;60885;-75
2022/06/09 04:11:33;;;;;;;;;;;;;;;14.92;74.35;96709.38;109915;1250;72462;-77
2022/06/09 04:14:02;;;;;;;;;;;;;;;14.99;74.15;96709.00;109938;1250;67882;-78
2022/06/09 04:16:41;;;;;;;;;;;;;;;15.10;73.24;96710.52;109826;1250;68666;-77
2022/06/09 04:19:11;;;;;;;;;;;;;;;15.21;72.70;96706.58;109865;1250;60484;-77
2022/06/09 04:21:41;;;;;;;;;;;;;;;15.33;72.44;96709.75;109707;1250;60465;-75
2022/06/09 04:24:11;;;;;;;;;;;;;;;15.46;71.88;96711.15;109723;1251;72346;-74
2022/06/09 04:26:41;;;;;;;;;;;;;;;15.60;71.00;96711.11;109860;1250;68577;-76
2022/06/09 04:29:11;;;;;;;;;;;;;;;15.74;71.60;96713.16;109666;1251;68509;-78
2022/06/09 04:31:41;;;;;;;;;;;;;;;15.84;71.39;96713.44;109778;1251;60529;-78
2022/06/09 04:34:11;;;;;;;;;;;;;;;15.94;71.91;96711.59;109885;1250;60579;-78
2022/06/09 04:36:41;;;;;;;;;;;;;;;16.04;71.67;96710.20;110300;1250;72158;-77
2022/06/09 04:39:11;;;;;;;;;;;;;;;16.16;71.50;96710.02;110491;1251;68197;-78
2022/06/09 04:41:39;;;;;;;;;;;;;;;16.30;71.24;96703.76;109917;1250;69294;-75
2022/06/09 04:44:09;;;;;;;;;;;;;;;16.44;70.54;96706.77;109599;1251;60871;-74
2022/06/09 04:46:38;;;;;;;;;;;;;;;16.57;69.84;96703.82;109923;1249;60485;-68
2022/06/09 04:49:07;;;;;;;;;;;;;;;16.70;69.80;96707.39;109757;1250;71712;-73
2022/06/09 04:51:36;;;;;;;;;;;;;;;16.86;69.34;96703.45;109898;1250;68632;-74
2022/06/09 04:54:05;;;;;;;;;;;;;;;17.04;68.82;96704.55;109935;1250;69430;-72
2022/06/09 04:56:34;;;;;;;;;;;;;;;17.16;68.14;96709.48;109889;1250;60563;-73
2022/06/09 04:59:03;;;;;;;;;;;;;;;17.24;67.75;96711.64;109979;1250;60521;-72
2022/06/09 05:01:32;;;;;;;;;;;;;;;17.30;67.35;96709.34;109872;1249;72119;-74
2022/06/09 05:04:02;;;;;;;;;;;;;;;17.43;67.27;96707.22;109933;1250;68628;-70
2022/06/09 05:06:31;;;;;;;;;;;;;;;17.67;66.38;96706.66;109722;1250;69252;-68
2022/06/09 05:09:00;;;;;;;;;;;;;;;18.00;67.24;96708.91;109714;1250;60497;-72
2022/06/09 05:11:29;;;;;;;;;;;;;;;18.44;65.20;96704.16;109824;1250;60467;-71
2022/06/09 05:13:58;;;;;;;;;;;;;;;18.99;66.23;96704.85;109879;1250;72344;-68
2022/06/09 05:16:27;;;;;;;;;;;;;;;19.48;59.41;96706.73;109931;1250;67061;-68
2022/06/09 05:18:56;;;;;;;;;;;;;;;19.77;58.48;96709.47;109920;1250;69477;-71
2022/06/09 05:21:25;;;;;;;;;;;;;;;19.92;57.41;96709.73;109835;1250;60566;-72
2022/06/09 05:23:53;;;;;;;;;;;;;;;20.10;57.37;96707.02;109739;1250;60503;-70
2022/06/09 05:26:22;;;;;;;;;;;;;;;20.26;56.70;96705.79;109825;1250;72175;-73
2022/06/09 05:28:51;;;;;;;;;;;;;;;20.28;56.03;96705.82;109837;1250;68571;-73
2022/06/09 05:31:20;;;;;;;;;;;;;;;20.38;55.82;96711.91;109866;1250;69230;-71
2022/06/09 05:33:49;;;;;;;;;;;;;;;20.41;55.66;96712.46;109926;1250;60445;-70
2022/06/09 05:36:17;;;;;;;;;;;;;;;20.48;55.32;96713.54;109941;1250;60592;-74
2022/06/09 05:47:10;;;;;;;;;;;;;;;20.39;55.30;96707.47;109749;1251;60561;-68
2022/06/09 05:49:39;;;;;;;;;;;;;;;20.50;55.89;96706.33;109721;1251;60547;-69
2022/06/09 05:52:08;;;;;;;;;;;;;;;20.60;56.49;96706.38;109726;1250;72437;-73
2022/06/09 05:54:44;;;;;;;;;;;;;;;20.74;56.69;96709.52;110003;1250;68710;-68
2022/06/09 05:57:19;;;;;;;;;;;;;;;20.93;56.14;96713.34;109931;1250;68004;-71
2022/06/09 05:59:49;;;;;;;;;;;;;;;21.08;54.73;96714.83;109964;1250;60550;-72
2022/06/09 06:02:19;;;;;;;;;;;;;;;21.19;54.80;96710.73;109949;1250;60513;-73
2022/06/09 06:04:50;;;;;;;;;;;;;;;21.34;54.41;96712.11;110097;1250;71660;-74
2022/06/09 06:07:18;;;;;;;;;;;;;;;21.48;54.12;96718.86;109731;1250;68611;-73
2022/06/09 06:09:47;;;;;;;;;;;;;;;21.52;52.73;96714.55;109948;1250;69475;-71
2022/06/09 06:12:16;;;;;;;;;;;;;;;21.55;52.91;96713.59;109923;1250;60590;-71
2022/06/09 06:14:45;;;;;;;;;;;;;;;21.63;52.77;96712.55;109890;1250;60474;-70
2022/06/09 06:17:14;;;;;;;;;;;;;;;21.77;52.40;96715.60;109933;1250;71285;-74
2022/06/09 06:19:43;;;;;;;;;;;;;;;21.91;51.91;96710.73;109814;1250;67290;-73
2022/06/09 06:22:12;;;;;;;;;;;;;;;22.02;50.88;96704.14;109917;1250;69461;-71
2022/06/09 06:24:40;;;;;;;;;;;;;;;22.26;51.19;96705.70;109779;1250;60478;-73
2022/06/09 06:27:09;;;;;;;;;;;;;;;22.66;50.90;96700.50;109257;1250;863311;-73
2022/06/09 06:29:58;;;;;;;;;;;;;;;23.18;49.62;96703.23;109933;1250;72295;-72
2022/06/09 06:32:27;;;;;;;;;;;;;;;23.70;48.13;96706.30;109910;1250;68648;-71
2022/06/09 06:34:56;;;;;;;;;;;;;;;24.16;47.69;96705.76;109890;1250;69492;-70
2022/06/09 06:37:25;;;;;;;;;;;;;;;24.43;45.12;96705.78;109892;1250;60551;-71
2022/06/09 06:39:53;;;;;;;;;;;;;;;24.60;43.89;96701.48;109862;1250;60510;-72
2022/06/09 06:42:22;;;;;;;;;;;;;;;24.66;43.91;96699.86;109879;1250;72408;-71
2022/06/09 06:44:52;;;;;;;;;;;;;;;24.88;43.23;96695.40;109934;1250;68862;-74
2022/06/09 06:47:21;;;;;;;;;;;;;;;25.16;41.85;96698.38;109889;1250;69234;-73
2022/06/09 06:49:50;;;;;;;;;;;;;;;25.61;41.56;96703.83;109858;1250;60529;-73
2022/06/09 06:52:19;;;;;;;;;;;;;;;25.81;39.88;96705.39;109847;1250;60500;-74
2022/06/09 06:54:48;;;;;;;;;;;;;;;25.97;38.10;96701.52;109861;1250;71083;-67
2022/06/09 06:57:17;;;;;;;;;;;;;;;26.04;38.49;96701.14;109982;1250;68006;-66
2022/06/09 06:59:46;;;;;;;;;;;;;;;26.03;38.27;96699.17;110003;1250;69028;-74
2022/06/09 07:02:15;;;;;;;;;;;;;;;26.20;39.08;96697.77;109828;1250;60501;-74
2022/06/09 07:04:45;;;;;;;;;;;;;;;26.47;38.14;96698.33;109664;1250;60545;-70
2022/06/09 07:07:14;;;;;;;;;;;;;;;26.65;36.95;96698.59;109950;1249;71628;-71
2022/06/09 07:09:43;;;;;;;;;;;;;;;26.76;36.86;96691.08;109917;1250;67524;-73
2022/06/09 07:12:12;;;;;;;;;;;;;;;26.89;37.23;96685.95;109927;1250;68622;-70
2022/06/09 07:14:41;;;;;;;;;;;;;;;27.07;37.32;96685.77;109887;1250;60565;-75
2022/06/09 07:17:10;;;;;;;;;;;;;;;27.15;36.72;96687.16;109797;1250;60520;-75
2022/06/09 07:19:39;;;;;;;;;;;;;;;27.41;36.63;96682.86;109976;1250;72466;-72
2022/06/09 07:22:08;;;;;;;;;;;;;;;27.53;35.71;96683.89;109932;1250;68438;-74
2022/06/09 07:24:37;;;;;;;;;;;;;;;27.41;35.13;96682.36;109874;1250;69258;-70
2022/06/09 07:27:06;;;;;;;;;;;;;;;27.41;35.77;96686.34;109876;1250;61040;-73
2022/06/09 07:29:35;;;;;;;;;;;;;;;27.56;36.21;96685.42;109912;1250;60616;-73
2022/06/09 07:32:05;;;;;;;;;;;;;;;27.79;35.69;96685.19;109812;1250;71579;-73
2022/06/09 07:34:35;;;;;;;;;;;;;;;27.84;34.22;96682.44;109792;1251;68501;-75
2022/06/09 07:37:05;;;;;;;;;;;;;;;28.08;34.84;96678.11;109898;1250;69329;-72
2022/06/09 07:39:35;;;;;;;;;;;;;;;28.38;34.60;96683.30;109700;1251;60620;-75
2022/06/09 07:42:04;;;;;;;;;;;;;;;28.52;33.51;96677.02;109704;1251;60533;-74
2022/06/09 07:44:33;;;;;;;;;;;;;;;28.68;33.35;96674.66;109928;1250;71407;-76
2022/06/09 07:47:02;;;;;;;;;;;;;;;28.68;30.26;96673.75;109774;1251;68740;-70
2022/06/09 07:49:32;;;;;;;;;;;;;;;28.71;30.38;96672.82;109829;1250;69263;-73
2022/06/09 07:52:01;;;;;;;;;;;;;;;28.85;30.75;96668.27;109886;1250;60959;-69
2022/06/09 07:54:30;;;;;;;;;;;;;;;28.94;30.38;96667.49;109729;1250;60550;-69
2022/06/09 07:56:59;;;;;;;;;;;;;;;28.91;30.73;96668.38;109927;1250;72392;-67
2022/06/09 07:59:28;;;;;;;;;;;;;;;28.97;30.74;96665.45;109909;1250;68016;-73
2022/06/09 08:01:57;;;;;;;;;;;;;;;29.33;31.47;96660.39;109710;1250;68609;-71
2022/06/09 08:04:31;;;;;;;;;;;;;;;29.52;30.03;96662.19;109984;1250;60562;-66
2022/06/09 08:07:02;;;;;;;;;;;;;;;29.49;29.77;96660.86;110210;1250;60479;-70
2022/06/09 08:09:37;;;;;;;;;;;;;;;29.64;29.97;96666.40;109876;1250;72184;-65
2022/06/09 08:12:07;;;;;;;;;;;;;;;29.32;29.05;96666.50;109970;1250;68427;-74
2022/06/09 08:14:36;;;;;;;;;;;;;;;29.38;29.28;96668.89;109711;1250;68492;-72
2022/06/09 08:17:05;;;;;;;;;;;;;;;29.38;28.31;96669.53;109898;1250;60535;-68
2022/06/09 08:19:34;;;;;;;;;;;;;;;29.13;28.54;96662.48;109946;1250;60509;-74
2022/06/09 08:22:03;;;;;;;;;;;;;;;29.02;29.46;96665.39;109954;1250;71803;-73
2022/06/09 08:24:35;;;;;;;;;;;;;;;29.39;29.48;96663.96;109975;1250;68573;-66
2022/06/09 08:27:04;;;;;;;;;;;;;;;29.62;29.06;96659.59;109980;1250;68461;-65
2022/06/09 08:29:33;;;;;;;;;;;;;;;29.90;28.14;96658.41;109725;1250;60506;-67
2022/06/09 08:32:02;;;;;;;;;;;;;;;29.87;27.40;96664.20;109950;1250;60516;-66
2022/06/09 08:34:32;;;;;;;;;;;;;;;29.33;26.87;96659.41;109952;1250;71593;-72
2022/06/09 08:37:01;;;;;;;;;;;;;;;28.92;27.78;96660.10;109869;1250;68762;-74
2022/06/09 08:39:31;;;;;;;;;;;;;;;28.77;28.15;96651.68;109952;1250;68509;-70
2022/06/09 08:42:19;;;;;;;;;;;;;;;28.88;28.21;96653.64;109739;1250;60498;-66
2022/06/09 08:44:54;;;;;;;;;;;;;;;28.64;28.22;96653.31;109852;1250;60512;-67
2022/06/09 08:47:26;;;;;;;;;;;;;;;28.40;28.71;96651.42;109930;1250;72291;-66
2022/06/09 08:50:03;;;;;;;;;;;;;;;28.15;28.76;96649.16;109895;1250;67609;-69
2022/06/09 08:52:47;;;;;;;;;;;;;;;27.99;29.89;96645.29;109851;1250;69244;-71
2022/06/09 08:55:22;;;;;;;;;;;;;;;28.07;29.36;96637.30;109817;1250;59656;-71
2022/06/09 08:57:53;;;;;;;;;;;;;;;28.03;29.38;96642.60;109933;1250;60481;-69
2022/06/09 09:00:24;;;;;;;;;;;;;;;27.90;29.18;96641.34;109905;1250;72148;-67
2022/06/09 09:02:59;;;;;;;;;;;;;;;27.78;29.73;96637.46;109678;1252;67752;-65
2022/06/09 09:05:32;;;;;;;;;;;;;;;27.84;30.12;96640.75;109936;1250;68648;-72
2022/06/09 09:08:06;;;;;;;;;;;;;;;27.59;30.14;96648.30;109792;1250;60542;-73
2022/06/09 09:10:51;;;;;;;;;;;;;;;27.32;30.86;96645.38;109853;1250;60493;-67
2022/06/09 09:13:33;;;;;;;;;;;;;;;27.13;30.92;96642.72;110013;1250;72339;-75
2022/06/09 09:16:08;;;;;;;;;;;;;;;26.75;30.84;96658.83;110171;1250;67172;-66
2022/06/09 09:18:40;;;;;;;;;;;;;;;26.56;31.41;96651.95;110181;1250;68682;-72
2022/06/09 09:21:12;;;;;;;;;;;;;;;26.49;31.40;96648.11;109957;1250;61034;-68
2022/06/09 09:23:46;;;;;;;;;;;;;;;26.44;31.95;96643.59;109720;1250;60534;-74
2022/06/09 09:26:21;;;;;;;;;;;;;;;26.58;32.97;96647.10;109954;1250;71625;-74
2022/06/09 09:28:54;;;;;;;;;;;;;;;26.78;31.98;96640.02;109943;1250;67809;-71
2022/06/09 09:31:35;;;;;;;;;;;;;;;26.86;31.82;96639.99;109719;1251;67977;-73
2022/06/09 09:34:04;;;;;;;;;;;;;;;27.13;31.60;96633.52;109863;1250;60536;-74
2022/06/09 09:36:37;;;;;;;;;;;;;;;27.46;31.19;96631.94;109914;1250;60504;-73
2022/06/09 09:39:09;;;;;;;;;;;;;;;27.88;31.48;96636.09;109958;1250;72347;-70
2022/06/09 09:41:39;;;;;;;;;;;;;;;28.48;31.36;96626.91;109705;1251;68558;-72
2022/06/09 09:44:16;;;;;;;;;;;;;;;28.94;30.38;96630.45;109891;1250;68469;-72
2022/06/09 09:46:57;;;;;;;;;;;;;;;29.13;29.40;96627.81;109803;1251;60499;-71
2022/06/09 09:49:30;;;;;;;;;;;;;;;28.80;29.17;96625.48;109983;1250;60512;-71
2022/06/09 09:51:59;;;;;;;;;;;;;;;28.53;30.11;96625.76;109886;1250;71785;-68
2022/06/09 09:54:36;;;;;;;;;;;;;;;28.33;30.36;96618.17;109875;1250;68590;-68
2022/06/09 09:57:16;;;;;;;;;;;;;;;28.18;31.29;96617.73;109635;1251;69448;-71
2022/06/09 09:59:51;;;;;;;;;;;;;;;28.27;31.51;96617.09;109705;1250;60494;-69
2022/06/09 10:08:41;;;;;;;;;;;;;;;28.53;30.96;96606.45;109961;1250;68650;-70
2022/06/09 10:14:43;;;;;;;;;;;;;;;28.37;31.55;96599.16;109724;1250;60606;-69
2022/06/09 10:17:27;;;;;;;;;;;;;;;28.40;30.95;96598.13;109958;1250;60933;-67
2022/06/09 10:20:16;;;;;;;;;;;;;;;28.28;31.26;96598.52;109902;1250;72315;-72
2022/06/09 10:23:17;;;;;;;;;;;;;;;28.22;31.29;96602.80;109946;1250;67788;-72
2022/06/09 10:26:05;;;;;;;;;;;;;;;28.20;31.65;96602.40;109752;1251;69566;-69
2022/06/09 10:28:43;;;;;;;;;;;;;;;28.38;32.16;96598.59;110051;1250;60549;-71
2022/06/09 10:31:30;;;;;;;;;;;;;;;28.55;31.72;96590.85;109964;1250;60502;-72
2022/06/09 10:34:07;;;;;;;;;;;;;;;28.78;31.57;96591.41;109918;1250;71560;-66
2022/06/09 10:36:50;;;;;;;;;;;;;;;28.95;31.12;96590.83;109808;1250;67792;-74
2022/06/09 10:39:26;;;;;;;;;;;;;;;28.93;31.14;96591.63;109938;1250;68685;-71
2022/06/09 10:41:58;;;;;;;;;;;;;;;28.85;31.73;96586.62;109918;1250;60532;-74
2022/06/09 10:44:44;;;;;;;;;;;;;;;29.04;32.25;96578.73;109979;1250;60470;-73
2022/06/09 10:56:38;;;;;;;;;;;;;;;28.82;31.03;96569.48;109309;1257;60511;-72
2022/06/09 10:59:25;;;;;;;;;;;;;;;28.74;31.37;96567.09;109300;1257;60559;-70
2022/06/09 11:01:54;;;;;;;;;;;;;;;28.58;31.75;96571.33;109321;1257;71787;-68
2022/06/09 11:04:24;;;;;;;;;;;;;;;28.47;32.48;96556.10;109215;1257;67771;-72
2022/06/09 11:06:52;;;;;;;;;;;;;;;28.63;32.24;96562.70;109252;1257;67779;-73
2022/06/09 11:09:40;;;;;;;;;;;;;;;28.73;32.04;96556.27;109173;1257;60520;-71
2022/06/09 11:12:28;;;;;;;;;;;;;;;28.95;32.03;96558.58;109272;1257;60524;-68
2022/06/09 11:14:57;;;;;;;;;;;;;;;29.22;32.04;96557.86;109269;1257;72458;-73
2022/06/09 11:17:36;;;;;;;;;;;;;;;29.36;30.94;96557.33;109211;1257;67888;-72
2022/06/09 11:20:20;;;;;;;;;;;;;;;29.42;30.96;96557.45;109278;1257;69261;-72
2022/06/09 11:22:52;;;;;;;;;;;;;;;29.59;31.49;96558.48;109240;1257;61060;-69
2022/06/09 11:25:36;;;;;;;;;;;;;;;29.34;30.91;96563.38;109297;1255;60550;-70
2022/06/09 11:28:10;;;;;;;;;;;;;;;29.05;31.65;96564.39;109770;1250;70596;-73
2022/06/09 11:30:42;;;;;;;;;;;;;;;29.07;32.13;96566.02;109942;1250;68603;-73
2022/06/09 11:33:31;;;;;;;;;;;;;;;29.16;31.95;96562.85;110202;1250;68648;-69
2022/06/09 11:36:04;;;;;;;;;;;;;;;29.27;31.12;96559.54;109751;1250;60531;-69
2022/06/09 11:38:39;;;;;;;;;;;;;;;29.39;31.16;96552.35;109702;1250;60495;-74
2022/06/09 11:41:34;;;;;;;;;;;;;;;29.75;30.79;96551.64;109877;1250;71710;-74
2022/06/09 11:44:11;;;;;;;;;;;;;;;30.12;29.94;96543.48;109732;1252;68655;-69
2022/06/09 11:46:42;;;;;;;;;;;;;;;30.27;29.96;96543.73;109803;1251;67693;-71
2022/06/09 11:49:15;;;;;;;;;;;;;;;30.48;30.28;96544.80;109888;1250;60550;-73
2022/06/09 11:51:45;;;;;;;;;;;;;;;30.51;29.52;96548.44;109923;1250;60456;-71
2022/06/09 11:54:35;;;;;;;;;;;;;;;30.46;29.42;96544.52;109870;1250;72367;-70
2022/06/09 11:57:22;;;;;;;;;;;;;;;30.65;29.25;96538.92;109894;1250;68228;-66
2022/06/09 11:59:53;;;;;;;;;;;;;;;30.71;28.67;96535.15;109866;1250;69461;-68
2022/06/09 12:02:33;;;;;;;;;;;;;;;30.61;28.62;96533.08;109867;1250;60628;-73
2022/06/09 12:05:07;;;;;;;;;;;;;;;30.78;28.62;96527.39;109936;1250;60543;-68
2022/06/09 12:07:47;;;;;;;;;;;;;;;30.67;28.49;96531.55;109923;1250;72218;-73
2022/06/09 12:10:18;;;;;;;;;;;;;;;30.31;28.78;96532.11;109912;1250;68918;-73
2022/06/09 12:13:02;;;;;;;;;;;;;;;29.91;29.40;96536.06;109822;1250;68733;-72
2022/06/09 12:15:33;;;;;;;;;;;;;;;29.86;29.84;96533.02;109740;1251;60502;-70
2022/06/09 12:18:07;;;;;;;;;;;;;;;29.92;29.93;96531.39;109874;1251;60445;-72
2022/06/09 12:20:57;;;;;;;;;;;;;;;30.01;29.77;96527.86;109948;1250;72407;-72
2022/06/09 12:23:28;;;;;;;;;;;;;;;30.15;29.85;96515.23;109915;1250;67810;-73
2022/06/09 12:26:18;;;;;;;;;;;;;;;30.40;29.76;96517.63;109883;1250;68667;-73
2022/06/09 12:28:52;;;;;;;;;;;;;;;30.65;29.17;96521.51;109666;1252;60497;-68
2022/06/09 12:31:20;;;;;;;;;;;;;;;30.76;29.18;96520.25;109926;1250;60535;-73
2022/06/09 12:34:03;;;;;;;;;;;;;;;30.64;29.02;96518.63;109861;1250;71588;-71
2022/06/09 12:36:38;;;;;;;;;;;;;;;30.26;29.41;96522.96;109920;1250;68645;-73
2022/06/09 12:39:22;;;;;;;;;;;;;;;29.87;29.47;96529.02;110417;1250;68690;-72
2022/06/09 12:41:53;;;;;;;;;;;;;;;29.48;30.16;96530.55;110042;1250;60605;-71
2022/06/09 12:44:25;;;;;;;;;;;;;;;29.25;31.31;96532.71;109694;1250;60566;-71
2022/06/09 12:47:01;;;;;;;;;;;;;;;29.61;31.20;96529.90;109926;1250;72256;-72
2022/06/09 12:49:31;;;;;;;;;;;;;;;29.89;30.71;96530.06;109873;1250;67953;-69
2022/06/09 12:52:01;;;;;;;;;;;;;;;29.96;29.98;96525.39;109794;1250;69549;-73
2022/06/09 12:54:36;;;;;;;;;;;;;;;29.94;29.35;96527.58;109723;1250;61035;-71
2022/06/09 12:57:06;;;;;;;;;;;;;;;29.72;29.95;96523.38;109720;1250;60428;-71
2022/06/09 12:59:37;;;;;;;;;;;;;;;29.61;28.69;96530.88;109929;1250;72393;-73
2022/06/09 13:02:20;;;;;;;;;;;;;;;29.41;30.49;96525.90;109731;1252;67642;-69
2022/06/09 13:04:51;;;;;;;;;;;;;;;29.08;30.34;96526.64;109736;1253;69472;-71
2022/06/09 13:07:22;;;;;;;;;;;;;;;28.64;30.69;96521.46;109655;1251;60566;-72
2022/06/09 13:10:11;;;;;;;;;;;;;;;28.20;31.38;96523.73;109708;1251;60505;-72
2022/06/09 13:12:52;;;;;;;;;;;;;;;27.87;32.79;96527.59;109661;1253;71929;-72
2022/06/09 13:15:26;;;;;;;;;;;;;;;27.71;32.70;96528.80;109925;1250;67863;-74
2022/06/09 13:17:57;;;;;;;;;;;;;;;27.57;34.02;96529.46;109808;1250;69768;-71
2022/06/09 13:20:27;;;;;;;;;;;;;;;27.60;34.20;96528.92;109826;1250;60616;-67
2022/06/09 13:22:56;;;;;;;;;;;;;;;27.61;34.01;96527.86;109832;1250;60441;-71
2022/06/09 13:25:25;;;;;;;;;;;;;;;27.51;34.28;96532.30;109917;1250;72497;-66
2022/06/09 13:27:55;;;;;;;;;;;;;;;27.32;34.73;96534.14;109555;1250;68630;-66
2022/06/09 13:30:38;;;;;;;;;;;;;;;27.14;34.89;96529.48;109606;1253;68907;-72
2022/06/09 13:33:25;;;;;;;;;;;;;;;27.04;35.09;96524.90;109664;1253;60573;-69